Hauptseite
METAR-TAF:

METAR-TAF

Flughäfen :

Rabat, Marokko

Flughafen Rabat-Salé

Breite: 34-03N, Länge: 006-46W, Höhe: 84 m

Beobachtung

Neuester Wetterbericht von vor 33 Minuten, um 08:00 UTC
Windstille
Temperatur 19°C
Luftfeuchtigkeit 94%
Luftdruck 1019 hPa
Sichtweite: 2000 m
Aufgelockert bewölkt in der Höhe von 400 ft
feuchter Dunst

METAR: GMME 240800Z 00000KT 2000 BR SCT004 19/18 Q1019 BECMG 5000

Zeit: 09:33 (08:33 UTC)

Prognose

Neuester Wetterbericht von vor 3 Stunden und 33 Minuten, um 05:00 UTC
Gültige Prognose vom 24 um 06 UTC bis 25 um 12 UTC
Wind 6 kt aus Nordwest
Sichtweite: 5000 m
Aufgelockert bewölkt in der Höhe von 1000 ft
Zeitweise
vom 24 um 10 UTC bis 24 um 16 UTC
Sichtweite: 8000 m
Aufgelockert bewölkt in der Höhe von 2000 ft

TAF: GMME 240500Z 2406/2512 32006KT 5000 SCT010 TEMPO 2410/2416 8000 SCT020

Wetterbeobachtungen und Prognosen von mehr als 4000 Flughäfen (METAR und TAF Bericht).

Die verfügbaren Stationen werden durch gelbe und rote Markierungen auf der Karte dargestellt.

Führen Sie die Maus auf sie, um den Namen der Station zu sehen.

Darauf klicken, um die Beobachtung von Wetterbeobachtungen und Prognosen zu sehen.

Um die Karte zu ändern : klicken Sie auf den grünen Tasten mit einem schwarzen Kreuz Zum Vergrößern, auf den grünen Button mit einem Gedankenstrich zu verkleinern, oder auf die grünen Pfeile für benachbarte Karten.


METAR-TAF: